sensor_id;sensor_type;location;lat;lon;timestamp;pressure;altitude;pressure_sealevel;temperature;humidity
38197;BME280;26543;51.976;4.616;2023-04-08T00:00:59;52910.34;;;-140.72;100.00
38197;BME280;26543;51.976;4.616;2023-04-08T00:03:25;52894.13;;;-140.72;100.00
38197;BME280;26543;51.976;4.616;2023-04-08T00:05:57;52912.38;;;-140.72;100.00
38197;BME280;26543;51.976;4.616;2023-04-08T00:08:22;52950.94;;;-140.72;100.00
38197;BME280;26543;51.976;4.616;2023-04-08T00:10:52;52928.63;;;-140.72;100.00
38197;BME280;26543;51.976;4.616;2023-04-08T00:13:18;52922.53;;;-140.72;100.00
38197;BME280;26543;51.976;4.616;2023-04-08T00:15:43;52955.00;;;-140.72;100.00
38197;BME280;26543;51.976;4.616;2023-04-08T00:18:08;52904.25;;;-140.72;100.00
38197;BME280;26543;51.976;4.616;2023-04-08T00:20:34;52950.94;;;-140.72;100.00
38197;BME280;26543;51.976;4.616;2023-04-08T00:22:59;52934.69;;;-140.72;100.00
38197;BME280;26543;51.976;4.616;2023-04-08T00:28:17;52932.66;;;-140.72;100.00
38197;BME280;26543;51.976;4.616;2023-04-08T00:30:43;52894.13;;;-140.72;100.00
38197;BME280;26543;51.976;4.616;2023-04-08T00:33:08;52886.00;;;-140.72;100.00
38197;BME280;26543;51.976;4.616;2023-04-08T00:35:34;52910.34;;;-140.72;100.00
38197;BME280;26543;51.976;4.616;2023-04-08T00:37:59;52918.47;;;-140.72;100.00
38197;BME280;26543;51.976;4.616;2023-04-08T00:40:25;52940.78;;;-140.72;100.00
38197;BME280;26543;51.976;4.616;2023-04-08T00:42:50;52918.47;;;-140.72;100.00
38197;BME280;26543;51.976;4.616;2023-04-08T00:45:16;52932.66;;;-140.72;100.00
38197;BME280;26543;51.976;4.616;2023-04-08T00:47:41;52926.59;;;-140.72;100.00
38197;BME280;26543;51.976;4.616;2023-04-08T00:50:07;52934.69;;;-140.72;100.00
38197;BME280;26543;51.976;4.616;2023-04-08T00:52:33;52930.66;;;-140.72;100.00
38197;BME280;26543;51.976;4.616;2023-04-08T00:54:58;52948.91;;;-140.72;100.00
38197;BME280;26543;51.976;4.616;2023-04-08T00:57:23;52928.63;;;-140.72;100.00
38197;BME280;26543;51.976;4.616;2023-04-08T00:59:49;52965.16;;;-140.72;100.00
38197;BME280;26543;51.976;4.616;2023-04-08T01:02:18;52898.16;;;-140.72;100.00
38197;BME280;26543;51.976;4.616;2023-04-08T01:09:38;52922.53;;;-140.72;100.00
38197;BME280;26543;51.976;4.616;2023-04-08T01:12:10;52928.63;;;-140.72;100.00
38197;BME280;26543;51.976;4.616;2023-04-08T01:14:38;52918.47;;;-140.72;100.00
38197;BME280;26543;51.976;4.616;2023-04-08T01:17:06;52914.41;;;-140.72;100.00
38197;BME280;26543;51.976;4.616;2023-04-08T01:19:33;52910.34;;;-140.72;100.00
38197;BME280;26543;51.976;4.616;2023-04-08T01:22:06;52916.44;;;-140.72;100.00
38197;BME280;26543;51.976;4.616;2023-04-08T01:24:35;52898.16;;;-140.72;100.00
38197;BME280;26543;51.976;4.616;2023-04-08T01:27:03;52902.22;;;-140.72;100.00
38197;BME280;26543;51.976;4.616;2023-04-08T01:29:29;52940.78;;;-140.72;100.00
38197;BME280;26543;51.976;4.616;2023-04-08T01:31:55;52934.69;;;-140.72;100.00
38197;BME280;26543;51.976;4.616;2023-04-08T01:34:21;52952.97;;;-140.72;100.00
38197;BME280;26543;51.976;4.616;2023-04-08T01:36:47;52908.31;;;-140.72;100.00
38197;BME280;26543;51.976;4.616;2023-04-08T01:39:13;52881.94;;;-140.72;100.00
38197;BME280;26543;51.976;4.616;2023-04-08T01:41:40;52930.66;;;-140.72;100.00
38197;BME280;26543;51.976;4.616;2023-04-08T01:46:57;52952.97;;;-140.72;100.00
38197;BME280;26543;51.976;4.616;2023-04-08T01:49:22;52942.81;;;-140.72;100.00
38197;BME280;26543;51.976;4.616;2023-04-08T01:51:50;52922.53;;;-140.72;100.00
38197;BME280;26543;51.976;4.616;2023-04-08T01:54:17;52934.69;;;-140.72;100.00
38197;BME280;26543;51.976;4.616;2023-04-08T01:59:34;52924.56;;;-140.72;100.00
38197;BME280;26543;51.976;4.616;2023-04-08T02:02:01;52928.63;;;-140.72;100.00
38197;BME280;26543;51.976;4.616;2023-04-08T02:04:27;52928.63;;;-140.72;100.00
38197;BME280;26543;51.976;4.616;2023-04-08T02:06:52;52955.00;;;-140.72;100.00
38197;BME280;26543;51.976;4.616;2023-04-08T02:09:18;52936.72;;;-140.72;100.00
38197;BME280;26543;51.976;4.616;2023-04-08T02:11:43;52948.91;;;-140.72;100.00
38197;BME280;26543;51.976;4.616;2023-04-08T02:14:08;52955.00;;;-140.72;100.00
38197;BME280;26543;51.976;4.616;2023-04-08T02:16:42;52965.16;;;-140.72;100.00
38197;BME280;26543;51.976;4.616;2023-04-08T02:19:26;52950.94;;;-140.72;100.00
38197;BME280;26543;51.976;4.616;2023-04-08T02:21:59;52959.06;;;-140.72;100.00
38197;BME280;26543;51.976;4.616;2023-04-08T02:24:26;52963.13;;;-140.72;100.00
38197;BME280;26543;51.976;4.616;2023-04-08T02:26:51;52892.09;;;-140.72;100.00
38197;BME280;26543;51.976;4.616;2023-04-08T02:29:19;52967.16;;;-140.72;100.00
38197;BME280;26543;51.976;4.616;2023-04-08T02:31:45;52906.28;;;-140.72;100.00
38197;BME280;26543;51.976;4.616;2023-04-08T02:34:11;52942.81;;;-140.72;100.00
38197;BME280;26543;51.976;4.616;2023-04-08T02:36:36;52944.84;;;-140.72;100.00
38197;BME280;26543;51.976;4.616;2023-04-08T02:39:03;52928.63;;;-140.72;100.00
38197;BME280;26543;51.976;4.616;2023-04-08T02:41:28;52985.44;;;-140.72;100.00
38197;BME280;26543;51.976;4.616;2023-04-08T02:43:54;52938.75;;;-140.72;100.00
38197;BME280;26543;51.976;4.616;2023-04-08T02:46:19;52963.13;;;-140.72;100.00
38197;BME280;26543;51.976;4.616;2023-04-08T02:48:44;52963.13;;;-140.72;100.00
38197;BME280;26543;51.976;4.616;2023-04-08T02:51:10;52967.16;;;-140.72;100.00
38197;BME280;26543;51.976;4.616;2023-04-08T02:53:35;52934.69;;;-140.72;100.00
38197;BME280;26543;51.976;4.616;2023-04-08T02:56:00;52959.06;;;-140.72;100.00
38197;BME280;26543;51.976;4.616;2023-04-08T02:58:25;52932.66;;;-140.72;100.00
38197;BME280;26543;51.976;4.616;2023-04-08T03:00:51;52971.22;;;-140.72;100.00
38197;BME280;26543;51.976;4.616;2023-04-08T03:03:16;53005.72;;;-140.72;100.00
38197;BME280;26543;51.976;4.616;2023-04-08T03:05:41;52940.78;;;-140.72;100.00
38197;BME280;26543;51.976;4.616;2023-04-08T03:08:06;52948.91;;;-140.72;100.00
38197;BME280;26543;51.976;4.616;2023-04-08T03:10:32;52944.84;;;-140.72;100.00
38197;BME280;26543;51.976;4.616;2023-04-08T03:12:57;52963.13;;;-140.72;100.00
38197;BME280;26543;51.976;4.616;2023-04-08T03:15:22;52959.06;;;-140.72;100.00
38197;BME280;26543;51.976;4.616;2023-04-08T03:17:48;52950.94;;;-140.72;100.00
38197;BME280;26543;51.976;4.616;2023-04-08T03:20:13;52950.94;;;-140.72;100.00
38197;BME280;26543;51.976;4.616;2023-04-08T03:22:38;52959.06;;;-140.72;100.00
38197;BME280;26543;51.976;4.616;2023-04-08T03:25:03;52936.72;;;-140.72;100.00
38197;BME280;26543;51.976;4.616;2023-04-08T03:27:29;52963.13;;;-140.72;100.00
38197;BME280;26543;51.976;4.616;2023-04-08T03:29:54;52967.16;;;-140.72;100.00
38197;BME280;26543;51.976;4.616;2023-04-08T03:32:21;52936.72;;;-140.72;100.00
38197;BME280;26543;51.976;4.616;2023-04-08T03:34:46;52971.22;;;-140.72;100.00
38197;BME280;26543;51.976;4.616;2023-04-08T03:37:15;53013.84;;;-140.72;100.00
38197;BME280;26543;51.976;4.616;2023-04-08T03:39:40;52942.81;;;-140.72;100.00
38197;BME280;26543;51.976;4.616;2023-04-08T03:42:05;52944.84;;;-140.72;100.00
38197;BME280;26543;51.976;4.616;2023-04-08T03:44:30;52963.13;;;-140.72;100.00
38197;BME280;26543;51.976;4.616;2023-04-08T03:46:55;52983.41;;;-140.72;100.00
38197;BME280;26543;51.976;4.616;2023-04-08T03:49:21;52948.91;;;-140.72;100.00
38197;BME280;26543;51.976;4.616;2023-04-08T03:51:46;52955.00;;;-140.72;100.00
38197;BME280;26543;51.976;4.616;2023-04-08T03:54:12;52946.88;;;-140.72;100.00
38197;BME280;26543;51.976;4.616;2023-04-08T03:56:37;52938.75;;;-140.72;100.00
38197;BME280;26543;51.976;4.616;2023-04-08T03:59:02;52928.63;;;-140.72;100.00
38197;BME280;26543;51.976;4.616;2023-04-08T04:01:27;52975.28;;;-140.72;100.00
38197;BME280;26543;51.976;4.616;2023-04-08T04:03:54;52952.97;;;-140.72;100.00
38197;BME280;26543;51.976;4.616;2023-04-08T04:06:19;52979.34;;;-140.72;100.00
38197;BME280;26543;51.976;4.616;2023-04-08T04:08:45;52977.31;;;-140.72;100.00
38197;BME280;26543;51.976;4.616;2023-04-08T04:11:10;52973.25;;;-140.72;100.00
38197;BME280;26543;51.976;4.616;2023-04-08T04:13:35;52975.28;;;-140.72;100.00
38197;BME280;26543;51.976;4.616;2023-04-08T04:16:00;52979.34;;;-140.72;100.00
38197;BME280;26543;51.976;4.616;2023-04-08T04:18:26;52983.41;;;-140.72;100.00
38197;BME280;26543;51.976;4.616;2023-04-08T04:20:51;52965.16;;;-140.72;100.00
38197;BME280;26543;51.976;4.616;2023-04-08T04:23:17;52971.22;;;-140.72;100.00
38197;BME280;26543;51.976;4.616;2023-04-08T04:25:43;52940.78;;;-140.72;100.00
38197;BME280;26543;51.976;4.616;2023-04-08T04:28:08;52989.50;;;-140.72;100.00
38197;BME280;26543;51.976;4.616;2023-04-08T04:30:37;52926.59;;;-140.72;100.00
38197;BME280;26543;51.976;4.616;2023-04-08T04:33:02;52969.19;;;-140.72;100.00
38197;BME280;26543;51.976;4.616;2023-04-08T04:35:28;52967.16;;;-140.72;100.00
38197;BME280;26543;51.976;4.616;2023-04-08T04:37:53;52975.28;;;-140.72;100.00
38197;BME280;26543;51.976;4.616;2023-04-08T04:40:18;52973.25;;;-140.72;100.00
38197;BME280;26543;51.976;4.616;2023-04-08T04:42:43;52975.28;;;-140.72;100.00
38197;BME280;26543;51.976;4.616;2023-04-08T04:45:09;52991.53;;;-140.72;100.00
38197;BME280;26543;51.976;4.616;2023-04-08T04:47:34;52993.56;;;-140.72;100.00
38197;BME280;26543;51.976;4.616;2023-04-08T04:49:59;52965.16;;;-140.72;100.00
38197;BME280;26543;51.976;4.616;2023-04-08T04:52:25;52987.47;;;-140.72;100.00
38197;BME280;26543;51.976;4.616;2023-04-08T04:54:50;52973.25;;;-140.72;100.00
38197;BME280;26543;51.976;4.616;2023-04-08T04:57:15;52977.31;;;-140.72;100.00
38197;BME280;26543;51.976;4.616;2023-04-08T04:59:41;52977.31;;;-140.72;100.00
38197;BME280;26543;51.976;4.616;2023-04-08T05:02:06;52997.63;;;-140.72;100.00
38197;BME280;26543;51.976;4.616;2023-04-08T05:04:31;52971.22;;;-140.72;100.00
38197;BME280;26543;51.976;4.616;2023-04-08T05:06:58;52967.16;;;-140.72;100.00
38197;BME280;26543;51.976;4.616;2023-04-08T05:09:23;52973.25;;;-140.72;100.00
38197;BME280;26543;51.976;4.616;2023-04-08T05:11:48;52999.66;;;-140.72;100.00
38197;BME280;26543;51.976;4.616;2023-04-08T05:14:13;52983.41;;;-140.72;100.00
38197;BME280;26543;51.976;4.616;2023-04-08T05:16:38;52977.31;;;-140.72;100.00
38197;BME280;26543;51.976;4.616;2023-04-08T05:19:04;52995.59;;;-140.72;100.00
38197;BME280;26543;51.976;4.616;2023-04-08T05:21:29;52991.53;;;-140.72;100.00
38197;BME280;26543;51.976;4.616;2023-04-08T05:23:54;52983.41;;;-140.72;100.00
38197;BME280;26543;51.976;4.616;2023-04-08T05:26:19;53019.94;;;-140.72;100.00
38197;BME280;26543;51.976;4.616;2023-04-08T05:28:48;52967.16;;;-140.72;100.00
38197;BME280;26543;51.976;4.616;2023-04-08T05:31:16;52955.00;;;-140.72;100.00
38197;BME280;26543;51.976;4.616;2023-04-08T05:33:42;53017.91;;;-140.72;100.00
38197;BME280;26543;51.976;4.616;2023-04-08T05:36:07;52965.16;;;-140.72;100.00
38197;BME280;26543;51.976;4.616;2023-04-08T05:38:32;52985.44;;;-140.72;100.00
38197;BME280;26543;51.976;4.616;2023-04-08T05:40:58;53007.75;;;-140.72;100.00
38197;BME280;26543;51.976;4.616;2023-04-08T05:43:23;53011.81;;;-140.72;100.00
38197;BME280;26543;51.976;4.616;2023-04-08T05:45:48;53001.66;;;-140.72;100.00
38197;BME280;26543;51.976;4.616;2023-04-08T05:48:14;52985.44;;;-140.72;100.00
38197;BME280;26543;51.976;4.616;2023-04-08T05:50:39;52991.53;;;-140.72;100.00
38197;BME280;26543;51.976;4.616;2023-04-08T05:53:04;53001.66;;;-140.72;100.00
38197;BME280;26543;51.976;4.616;2023-04-08T05:55:30;53024.00;;;-140.72;100.00
38197;BME280;26543;51.976;4.616;2023-04-08T05:57:55;52987.47;;;-140.72;100.00
38197;BME280;26543;51.976;4.616;2023-04-08T06:00:20;52952.97;;;-140.72;100.00
38197;BME280;26543;51.976;4.616;2023-04-08T06:02:46;53019.94;;;-140.72;100.00
38197;BME280;26543;51.976;4.616;2023-04-08T06:05:11;52987.47;;;-140.72;100.00
38197;BME280;26543;51.976;4.616;2023-04-08T06:07:36;53003.69;;;-140.72;100.00
38197;BME280;26543;51.976;4.616;2023-04-08T06:10:02;53019.94;;;-140.72;100.00
38197;BME280;26543;51.976;4.616;2023-04-08T06:12:27;53009.78;;;-140.72;100.00
38197;BME280;26543;51.976;4.616;2023-04-08T06:14:53;52991.53;;;-140.72;100.00
38197;BME280;26543;51.976;4.616;2023-04-08T06:17:18;52983.41;;;-140.72;100.00
38197;BME280;26543;51.976;4.616;2023-04-08T06:19:43;52979.34;;;-140.72;100.00
38197;BME280;26543;51.976;4.616;2023-04-08T06:22:09;53024.00;;;-140.72;100.00
38197;BME280;26543;51.976;4.616;2023-04-08T06:24:34;52952.97;;;-140.72;100.00
38197;BME280;26543;51.976;4.616;2023-04-08T06:26:59;52967.16;;;-140.72;100.00
38197;BME280;26543;51.976;4.616;2023-04-08T06:29:25;52975.28;;;-140.72;100.00
38197;BME280;26543;51.976;4.616;2023-04-08T06:31:50;52987.47;;;-140.72;100.00
38197;BME280;26543;51.976;4.616;2023-04-08T06:34:15;53003.69;;;-140.72;100.00
38197;BME280;26543;51.976;4.616;2023-04-08T06:36:40;52967.16;;;-140.72;100.00
38197;BME280;26543;51.976;4.616;2023-04-08T06:39:06;52993.56;;;-140.72;100.00
38197;BME280;26543;51.976;4.616;2023-04-08T06:41:31;53001.66;;;-140.72;100.00
38197;BME280;26543;51.976;4.616;2023-04-08T06:43:56;52991.53;;;-140.72;100.00
38197;BME280;26543;51.976;4.616;2023-04-08T06:46:21;52983.41;;;-140.72;100.00
38197;BME280;26543;51.976;4.616;2023-04-08T06:48:47;53007.75;;;-140.72;100.00
38197;BME280;26543;51.976;4.616;2023-04-08T06:51:12;52975.28;;;-140.72;100.00
38197;BME280;26543;51.976;4.616;2023-04-08T06:53:37;52975.28;;;-140.72;100.00
38197;BME280;26543;51.976;4.616;2023-04-08T06:56:02;52983.41;;;-140.72;100.00
38197;BME280;26543;51.976;4.616;2023-04-08T06:58:28;52997.63;;;-140.72;100.00
38197;BME280;26543;51.976;4.616;2023-04-08T07:00:54;52940.78;;;-140.72;100.00
38197;BME280;26543;51.976;4.616;2023-04-08T07:03:22;52938.75;;;-140.72;100.00
38197;BME280;26543;51.976;4.616;2023-04-08T07:05:47;52987.47;;;-140.72;100.00
38197;BME280;26543;51.976;4.616;2023-04-08T07:08:12;52957.03;;;-140.72;100.00
38197;BME280;26543;51.976;4.616;2023-04-08T07:10:38;52967.16;;;-140.72;100.00
38197;BME280;26543;51.976;4.616;2023-04-08T07:13:03;52967.16;;;-140.72;100.00
38197;BME280;26543;51.976;4.616;2023-04-08T07:15:28;52938.75;;;-140.72;100.00
38197;BME280;26543;51.976;4.616;2023-04-08T07:17:53;52955.00;;;-140.72;100.00
38197;BME280;26543;51.976;4.616;2023-04-08T07:20:22;52900.19;;;-140.72;100.00
38197;BME280;26543;51.976;4.616;2023-04-08T07:22:48;52922.53;;;-140.72;100.00
38197;BME280;26543;51.976;4.616;2023-04-08T07:25:13;52938.75;;;-140.72;100.00
38197;BME280;26543;51.976;4.616;2023-04-08T07:27:38;52934.69;;;-140.72;100.00
38197;BME280;26543;51.976;4.616;2023-04-08T07:32:33;52916.44;;;-140.72;100.00
38197;BME280;26543;51.976;4.616;2023-04-08T07:34:59;52940.78;;;-140.72;100.00
38197;BME280;26543;51.976;4.616;2023-04-08T07:37:25;52924.56;;;-140.72;100.00
38197;BME280;26543;51.976;4.616;2023-04-08T07:39:50;52916.44;;;-140.72;100.00
38197;BME280;26543;51.976;4.616;2023-04-08T07:42:15;52914.41;;;-140.72;100.00
38197;BME280;26543;51.976;4.616;2023-04-08T07:44:40;52914.41;;;-140.72;100.00
38197;BME280;26543;51.976;4.616;2023-04-08T07:47:05;52928.63;;;-140.72;100.00
38197;BME280;26543;51.976;4.616;2023-04-08T07:49:31;52914.41;;;-140.72;100.00
38197;BME280;26543;51.976;4.616;2023-04-08T07:51:56;52883.97;;;-140.72;100.00
38197;BME280;26543;51.976;4.616;2023-04-08T07:54:21;52942.81;;;-140.72;100.00
38197;BME280;26543;51.976;4.616;2023-04-08T07:56:46;52914.41;;;-140.72;100.00
38197;BME280;26543;51.976;4.616;2023-04-08T07:59:12;52906.28;;;-140.72;100.00
38197;BME280;26543;51.976;4.616;2023-04-08T08:01:37;52898.16;;;-140.72;100.00
38197;BME280;26543;51.976;4.616;2023-04-08T08:04:02;52926.59;;;-140.72;100.00
38197;BME280;26543;51.976;4.616;2023-04-08T08:06:28;52881.94;;;-140.72;100.00
38197;BME280;26543;51.976;4.616;2023-04-08T08:08:53;52936.72;;;-140.72;100.00
38197;BME280;26543;51.976;4.616;2023-04-08T08:11:19;52861.66;;;-140.72;100.00
38197;BME280;26543;51.976;4.616;2023-04-08T08:13:45;52865.69;;;-140.72;100.00
38197;BME280;26543;51.976;4.616;2023-04-08T08:16:10;52894.13;;;-140.72;100.00
38197;BME280;26543;51.976;4.616;2023-04-08T08:18:36;52904.25;;;-140.72;100.00
38197;BME280;26543;51.976;4.616;2023-04-08T08:21:01;52837.28;;;-140.72;100.00
38197;BME280;26543;51.976;4.616;2023-04-08T08:23:26;52910.34;;;-140.72;100.00
38197;BME280;26543;51.976;4.616;2023-04-08T08:25:58;52853.53;;;-140.72;100.00
38197;BME280;26543;51.976;4.616;2023-04-08T08:28:23;52892.09;;;-140.72;100.00
38197;BME280;26543;51.976;4.616;2023-04-08T08:30:48;52867.72;;;-140.72;100.00
38197;BME280;26543;51.976;4.616;2023-04-08T08:33:14;52908.31;;;-140.72;100.00
38197;BME280;26543;51.976;4.616;2023-04-08T08:35:39;52888.03;;;-140.72;100.00
38197;BME280;26543;51.976;4.616;2023-04-08T08:38:05;52900.19;;;-140.72;100.00
38197;BME280;26543;51.976;4.616;2023-04-08T08:40:30;52837.28;;;-140.72;100.00
38197;BME280;26543;51.976;4.616;2023-04-08T08:42:55;52881.94;;;-140.72;100.00
38197;BME280;26543;51.976;4.616;2023-04-08T08:45:23;52910.34;;;-140.72;100.00
38197;BME280;26543;51.976;4.616;2023-04-08T08:47:48;52865.69;;;-140.72;100.00
38197;BME280;26543;51.976;4.616;2023-04-08T08:50:13;52808.88;;;-140.72;100.00
38197;BME280;26543;51.976;4.616;2023-04-08T08:52:46;52851.50;;;-140.72;100.00
38197;BME280;26543;51.976;4.616;2023-04-08T08:55:11;52835.25;;;-140.72;100.00
38197;BME280;26543;51.976;4.616;2023-04-08T08:57:37;52855.56;;;-140.72;100.00
38197;BME280;26543;51.976;4.616;2023-04-08T09:00:02;52833.22;;;-140.72;100.00
38197;BME280;26543;51.976;4.616;2023-04-08T09:02:28;52849.47;;;-140.72;100.00
38197;BME280;26543;51.976;4.616;2023-04-08T09:05:03;52857.59;;;-140.72;100.00
38197;BME280;26543;51.976;4.616;2023-04-08T09:07:29;52853.53;;;-140.72;100.00
38197;BME280;26543;51.976;4.616;2023-04-08T09:09:56;52855.56;;;-140.72;100.00
38197;BME280;26543;51.976;4.616;2023-04-08T09:12:21;52833.22;;;-140.72;100.00
38197;BME280;26543;51.976;4.616;2023-04-08T09:14:47;52821.06;;;-140.72;100.00
38197;BME280;26543;51.976;4.616;2023-04-08T09:17:12;52849.47;;;-140.72;100.00
38197;BME280;26543;51.976;4.616;2023-04-08T09:19:38;52800.75;;;-140.72;100.00
38197;BME280;26543;51.976;4.616;2023-04-08T09:22:07;52735.81;;;-140.72;100.00
38197;BME280;26543;51.976;4.616;2023-04-08T09:24:33;52707.41;;;-140.72;100.00
38197;BME280;26543;51.976;4.616;2023-04-08T09:26:58;52683.06;;;-140.72;100.00
38197;BME280;26543;51.976;4.616;2023-04-08T09:29:25;52648.56;;;-140.72;100.00
38197;BME280;26543;51.976;4.616;2023-04-08T09:31:58;52660.75;;;-140.72;100.00
38197;BME280;26543;51.976;4.616;2023-04-08T09:34:24;52674.94;;;-140.72;100.00
38197;BME280;26543;51.976;4.616;2023-04-08T09:37:04;52685.09;;;-140.72;100.00
38197;BME280;26543;51.976;4.616;2023-04-08T09:39:31;52652.63;;;-140.72;100.00
38197;BME280;26543;51.976;4.616;2023-04-08T09:41:57;52638.41;;;-140.72;100.00
38197;BME280;26543;51.976;4.616;2023-04-08T09:44:22;52674.94;;;-140.72;100.00
38197;BME280;26543;51.976;4.616;2023-04-08T09:54:11;52601.91;;;-140.72;0.00
38197;BME280;26543;51.976;4.616;2023-04-08T09:56:40;52626.25;;;-140.72;0.00
38197;BME280;26543;51.976;4.616;2023-04-08T09:59:12;52571.47;;;-140.72;0.00
38197;BME280;26543;51.976;4.616;2023-04-08T10:01:39;52591.75;;;-140.72;0.00
38197;BME280;26543;51.976;4.616;2023-04-08T10:04:09;52547.09;;;-140.72;0.00
38197;BME280;26543;51.976;4.616;2023-04-08T10:06:36;52551.16;;;-140.72;0.00
38197;BME280;26543;51.976;4.616;2023-04-08T10:09:02;52561.31;;;-140.72;0.00
38197;BME280;26543;51.976;4.616;2023-04-08T10:11:28;52553.19;;;-140.72;0.00
38197;BME280;26543;51.976;4.616;2023-04-08T10:13:54;52587.69;;;-140.72;0.00
38197;BME280;26543;51.976;4.616;2023-04-08T10:16:20;52528.84;;;-140.72;0.00
38197;BME280;26543;51.976;4.616;2023-04-08T10:18:46;52508.56;;;-140.72;0.00
38197;BME280;26543;51.976;4.616;2023-04-08T10:23:56;52518.69;;;-140.72;0.00
38197;BME280;26543;51.976;4.616;2023-04-08T10:26:30;52480.16;;;-140.72;0.00
38197;BME280;26543;51.976;4.616;2023-04-08T10:31:41;52536.97;;;-140.72;0.00
38197;BME280;26543;51.976;4.616;2023-04-08T10:36:44;52484.19;;;-140.72;0.00
38197;BME280;26543;51.976;4.616;2023-04-08T10:39:09;52451.72;;;-140.72;0.00
38197;BME280;26543;51.976;4.616;2023-04-08T10:41:42;52415.22;;;-140.72;0.00
38197;BME280;26543;51.976;4.616;2023-04-08T10:44:20;52415.22;;;-140.72;0.00
38197;BME280;26543;51.976;4.616;2023-04-08T10:46:46;52423.31;;;-140.72;0.00
38197;BME280;26543;51.976;4.616;2023-04-08T10:49:12;52386.81;;;-140.72;0.00
38197;BME280;26543;51.976;4.616;2023-04-08T10:51:38;52403.03;;;-140.72;0.00
38197;BME280;26543;51.976;4.616;2023-04-08T10:54:11;52388.84;;;-140.72;0.00
38197;BME280;26543;51.976;4.616;2023-04-08T10:56:43;52360.44;;;-140.72;0.00
38197;BME280;26543;51.976;4.616;2023-04-08T10:59:09;52358.41;;;-140.72;0.00
38197;BME280;26543;51.976;4.616;2023-04-08T11:01:38;52386.81;;;-140.72;0.00
38197;BME280;26543;51.976;4.616;2023-04-08T11:04:14;52311.72;;;-140.72;0.00
38197;BME280;26543;51.976;4.616;2023-04-08T11:06:41;52252.88;;;-140.72;0.00
38197;BME280;26543;51.976;4.616;2023-04-08T11:09:06;52330.00;;;-140.72;0.00
38197;BME280;26543;51.976;4.616;2023-04-08T11:11:32;52321.88;;;-140.72;0.00
38197;BME280;26543;51.976;4.616;2023-04-08T11:13:58;52281.28;;;-140.72;0.00
38197;BME280;26543;51.976;4.616;2023-04-08T11:16:23;52281.28;;;-140.72;0.00
38197;BME280;26543;51.976;4.616;2023-04-08T11:18:51;52285.34;;;-140.72;0.00
38197;BME280;26543;51.976;4.616;2023-04-08T11:21:17;52252.88;;;-140.72;0.00
38197;BME280;26543;51.976;4.616;2023-04-08T11:23:42;52189.97;;;-140.72;0.00
38197;BME280;26543;51.976;4.616;2023-04-08T11:26:08;52285.34;;;-140.72;0.00
38197;BME280;26543;51.976;4.616;2023-04-08T11:28:34;52173.75;;;-140.72;0.00
38197;BME280;26543;51.976;4.616;2023-04-08T11:30:59;52179.84;;;-140.72;0.00
38197;BME280;26543;51.976;4.616;2023-04-08T11:33:26;52214.34;;;-140.72;0.00
38197;BME280;26543;51.976;4.616;2023-04-08T11:35:54;52177.81;;;-140.72;0.00
38197;BME280;26543;51.976;4.616;2023-04-08T11:38:21;52183.91;;;-140.72;0.00
38197;BME280;26543;51.976;4.616;2023-04-08T11:40:53;52153.47;;;-140.72;0.00
38197;BME280;26543;51.976;4.616;2023-04-08T11:43:19;52183.91;;;-140.72;0.00
38197;BME280;26543;51.976;4.616;2023-04-08T11:45:44;52198.09;;;-140.72;0.00
38197;BME280;26543;51.976;4.616;2023-04-08T11:50:35;52200.13;;;-140.72;0.00
38197;BME280;26543;51.976;4.616;2023-04-08T11:53:00;52104.75;;;-140.72;0.00
38197;BME280;26543;51.976;4.616;2023-04-08T11:57:51;52220.41;;;-140.72;0.00
38197;BME280;26543;51.976;4.616;2023-04-08T12:00:17;52139.25;;;-140.72;0.00
38197;BME280;26543;51.976;4.616;2023-04-08T12:02:43;52165.63;;;-140.72;0.00
38197;BME280;26543;51.976;4.616;2023-04-08T12:05:08;52173.75;;;-140.72;0.00
38197;BME280;26543;51.976;4.616;2023-04-08T12:07:34;52149.41;;;-140.72;0.00
38197;BME280;26543;51.976;4.616;2023-04-08T12:09:59;52183.91;;;-140.72;0.00
38197;BME280;26543;51.976;4.616;2023-04-08T12:12:25;52131.16;;;-140.72;0.00
38197;BME280;26543;51.976;4.616;2023-04-08T12:14:50;52127.09;;;-140.72;0.00
38197;BME280;26543;51.976;4.616;2023-04-08T12:17:15;52098.69;;;-140.72;0.00
38197;BME280;26543;51.976;4.616;2023-04-08T12:19:40;52129.13;;;-140.72;0.00
38197;BME280;26543;51.976;4.616;2023-04-08T12:22:06;52088.53;;;-140.72;0.00
38197;BME280;26543;51.976;4.616;2023-04-08T12:24:31;52145.34;;;-140.72;0.00
38197;BME280;26543;51.976;4.616;2023-04-08T12:26:57;52137.22;;;-140.72;0.00
38197;BME280;26543;51.976;4.616;2023-04-08T12:29:30;52118.97;;;-140.72;0.00
38197;BME280;26543;51.976;4.616;2023-04-08T12:32:01;52082.44;;;-140.72;0.00
38197;BME280;26543;51.976;4.616;2023-04-08T12:34:28;52058.09;;;-140.72;0.00
38197;BME280;26543;51.976;4.616;2023-04-08T12:36:53;52118.97;;;-140.72;0.00
38197;BME280;26543;51.976;4.616;2023-04-08T12:39:20;52052.00;;;-140.72;0.00
38197;BME280;26543;51.976;4.616;2023-04-08T12:46:44;52037.81;;;-140.72;0.00
38197;BME280;26543;51.976;4.616;2023-04-08T12:49:10;52005.34;;;-140.72;0.00
38197;BME280;26543;51.976;4.616;2023-04-08T12:51:36;52076.34;;;-140.72;0.00
38197;BME280;26543;51.976;4.616;2023-04-08T12:54:01;52110.84;;;-140.72;0.00
38197;BME280;26543;51.976;4.616;2023-04-08T12:56:28;52068.25;;;-140.72;0.00
38197;BME280;26543;51.976;4.616;2023-04-08T12:58:53;52045.94;;;-140.72;0.00
38197;BME280;26543;51.976;4.616;2023-04-08T13:01:19;52094.63;;;-140.72;0.00
38197;BME280;26543;51.976;4.616;2023-04-08T13:03:45;52110.84;;;-140.72;0.00
38197;BME280;26543;51.976;4.616;2023-04-08T13:06:11;52082.44;;;-140.72;0.00
38197;BME280;26543;51.976;4.616;2023-04-08T13:08:37;52086.50;;;-140.72;0.00
38197;BME280;26543;51.976;4.616;2023-04-08T13:11:02;52086.50;;;-140.72;0.00